Destin, FL (32540)

11:51 PM CDT on July 26, 2016 (GMT -0500)
Destin Water Users | | Change Station
Active Advisory: Coastal Hazard Statement

Elev 26 ft 30.39 °N, 86.48 °W | Updated 5 seconds ago

Mostly Cloudy
Mostly Cloudy
81.4 °F
Feels Like 88 °F
N
3.3
Wind Variable Wind from SSW
Gusts 5.0 mph

Today
High -- | Low -- °F
--% Chance of Precip.
Yesterday
High -- | Low -- °F
Precip. -- in
Pressure 30.06 in
Visibility 10.0 miles
Clouds Few 2000 ft
Mostly Cloudy 2500 ft
Mostly Cloudy 3400 ft
Heat Index 88 °F
Dew Point 76 °F
Humidity 85%
Rainfall 0.01 in
Snow Depth Not available.
6:00 AM 7:43 PM
Waning Gibbous, 47% visible
SPECI KDTS 270444Z AUTO 22008KT 170V250 10SM FEW020 BKN025 BKN034 29/26 A3006 RMK AO2 RAE31 P0001 T02890256 TSNO
Pressure 30.06 in
Visibility 10.0 miles
Clouds Few 2000 ft
Mostly Cloudy 2500 ft
Mostly Cloudy 3400 ft
Heat Index 88 °F
Dew Point 76 °F
Humidity 85%
Rainfall 0.01 in
Snow Depth Not available.
6:00 AM 7:43 PM
Waning Gibbous, 47% visible
SPECI KDTS 270444Z AUTO 22008KT 170V250 10SM FEW020 BKN025 BKN034 29/26 A3006 RMK AO2 RAE31 P0001 T02890256 TSNO

10-Day Weather Forecast

Almanac

Astronomy

Jul. 26, 2016 Rise Set
Actual Time
Civil Twilight
Nautical Twilight
Astronomical Twilight
Moon
Length of Visible Light
Length of Day
Tomorrow will be .
, % of the Moon is Illuminated

Today's Extremes

State Highs State Lows

Community

WunderPhotos

Upload Photos

1,927,814 photos uploaded!

WunderBlog® & News

Nearby

Air Quality

  Air Quality AQ Index Pollutant
Not available.

Snow Depth

Station Depth Elevation

Earthquake Activity

City Distance Mag. Time & Date
Minimum magnitude displayed is 2.5.

Coastal Water Temperatures

Place Temperature

Stations

Nearby Weather Stations

Station Location Temp. Windchill Dew Point Humidity Wind Precip. Elev Updated Type
                   

Watches & Warnings

Coastal Hazard Statement
Issued: 5:31 PM CDT Jul. 26, 2016 – National Weather Service

... High rip current risk in effect through early Wednesday
morning...

The National Weather Service in Mobile has issued a high rip
current risk... which is in effect through Wednesday morning.

* Timing... through early Wednesday morning.

* Impacts... frequent life-threatening rip currents are expected. The
surf is dangerous for all levels of swimmers.

Precautionary/preparedness actions...

There is a high risk of rip currents.

Rip currents are life-threatening to anyone entering the surf.
If you become caught in a rip current... Yell for help. Remain
calm... do not exhaust yourself and stay afloat while waiting for
help. If you have to swim out of a rip current... swim parallel
to shore and back toward the beach when possible. Do not attempt
to swim directly against a rip current as you will tire quickly.